sensor_id;sensor_type;location;lat;lon;timestamp;pressure;altitude;pressure_sealevel;temperature;humidity
41886;BME280;27567;43.084;25.616;2024-01-07T00:00:10;96939.34;;;12.86;100.00
41886;BME280;27567;43.084;25.616;2024-01-07T00:02:55;96947.97;;;12.88;100.00
41886;BME280;27567;43.084;25.616;2024-01-07T00:05:39;96945.47;;;12.81;100.00
41886;BME280;27567;43.084;25.616;2024-01-07T00:08:23;96948.41;;;12.80;100.00
41886;BME280;27567;43.084;25.616;2024-01-07T00:11:07;96934.41;;;12.77;100.00
41886;BME280;27567;43.084;25.616;2024-01-07T00:13:51;96926.84;;;12.74;100.00
41886;BME280;27567;43.084;25.616;2024-01-07T00:16:34;96924.16;;;12.74;100.00
41886;BME280;27567;43.084;25.616;2024-01-07T00:19:18;96911.66;;;12.63;100.00
41886;BME280;27567;43.084;25.616;2024-01-07T00:22:03;96890.69;;;12.65;100.00
41886;BME280;27567;43.084;25.616;2024-01-07T00:24:47;96880.38;;;12.57;100.00
41886;BME280;27567;43.084;25.616;2024-01-07T00:27:31;96895.81;;;12.67;100.00
41886;BME280;27567;43.084;25.616;2024-01-07T00:30:15;96875.91;;;12.62;100.00
41886;BME280;27567;43.084;25.616;2024-01-07T00:32:59;96850.50;;;12.53;100.00
41886;BME280;27567;43.084;25.616;2024-01-07T00:35:42;96861.31;;;12.58;100.00
41886;BME280;27567;43.084;25.616;2024-01-07T00:38:26;96851.00;;;12.50;100.00
41886;BME280;27567;43.084;25.616;2024-01-07T00:41:11;96847.38;;;12.61;100.00
41886;BME280;27567;43.084;25.616;2024-01-07T00:43:55;96850.66;;;12.69;100.00
41886;BME280;27567;43.084;25.616;2024-01-07T00:46:39;96830.19;;;12.62;100.00
41886;BME280;27567;43.084;25.616;2024-01-07T00:49:23;96832.47;;;12.76;100.00
41886;BME280;27567;43.084;25.616;2024-01-07T00:52:07;96841.34;;;12.76;100.00
41886;BME280;27567;43.084;25.616;2024-01-07T00:54:51;96845.63;;;12.72;100.00
41886;BME280;27567;43.084;25.616;2024-01-07T00:57:35;96844.00;;;12.71;100.00
41886;BME280;27567;43.084;25.616;2024-01-07T01:00:19;96832.13;;;12.67;100.00
41886;BME280;27567;43.084;25.616;2024-01-07T01:03:03;96827.22;;;12.86;100.00
41886;BME280;27567;43.084;25.616;2024-01-07T01:05:47;96821.72;;;13.03;100.00
41886;BME280;27567;43.084;25.616;2024-01-07T01:08:31;96807.41;;;12.98;100.00
41886;BME280;27567;43.084;25.616;2024-01-07T01:11:15;96778.44;;;13.05;100.00
41886;BME280;27567;43.084;25.616;2024-01-07T01:13:59;96771.94;;;13.01;100.00
41886;BME280;27567;43.084;25.616;2024-01-07T01:16:43;96760.41;;;13.05;100.00
41886;BME280;27567;43.084;25.616;2024-01-07T01:19:27;96746.69;;;13.07;100.00
41886;BME280;27567;43.084;25.616;2024-01-07T01:22:11;96749.91;;;13.04;100.00
41886;BME280;27567;43.084;25.616;2024-01-07T01:24:54;96754.22;;;13.05;100.00
41886;BME280;27567;43.084;25.616;2024-01-07T01:27:39;96770.94;;;13.12;100.00
41886;BME280;27567;43.084;25.616;2024-01-07T01:30:23;96764.63;;;13.29;100.00
41886;BME280;27567;43.084;25.616;2024-01-07T01:33:07;96746.53;;;13.19;100.00
41886;BME280;27567;43.084;25.616;2024-01-07T01:35:51;96756.78;;;13.27;100.00
41886;BME280;27567;43.084;25.616;2024-01-07T01:38:35;96788.84;;;13.29;100.00
41886;BME280;27567;43.084;25.616;2024-01-07T01:41:19;96778.88;;;13.24;100.00
41886;BME280;27567;43.084;25.616;2024-01-07T01:44:03;96790.66;;;13.18;100.00
41886;BME280;27567;43.084;25.616;2024-01-07T01:46:47;96760.22;;;13.17;100.00
41886;BME280;27567;43.084;25.616;2024-01-07T01:49:32;96765.91;;;13.21;100.00
41886;BME280;27567;43.084;25.616;2024-01-07T01:52:16;96771.31;;;13.21;100.00
41886;BME280;27567;43.084;25.616;2024-01-07T01:55:00;96759.94;;;13.14;100.00
41886;BME280;27567;43.084;25.616;2024-01-07T01:57:46;96744.38;;;13.21;100.00
41886;BME280;27567;43.084;25.616;2024-01-07T02:00:31;96732.00;;;13.25;100.00
41886;BME280;27567;43.084;25.616;2024-01-07T02:03:15;96739.19;;;13.14;100.00
41886;BME280;27567;43.084;25.616;2024-01-07T02:05:59;96720.34;;;13.09;100.00
41886;BME280;27567;43.084;25.616;2024-01-07T02:08:43;96747.59;;;13.18;100.00
41886;BME280;27567;43.084;25.616;2024-01-07T02:11:28;96730.84;;;13.11;100.00
41886;BME280;27567;43.084;25.616;2024-01-07T02:14:11;96709.84;;;13.07;100.00
41886;BME280;27567;43.084;25.616;2024-01-07T02:16:56;96701.72;;;13.02;100.00
41886;BME280;27567;43.084;25.616;2024-01-07T02:19:40;96712.66;;;12.90;100.00
41886;BME280;27567;43.084;25.616;2024-01-07T02:22:24;96697.94;;;12.66;100.00
41886;BME280;27567;43.084;25.616;2024-01-07T02:25:08;96698.97;;;12.59;100.00
41886;BME280;27567;43.084;25.616;2024-01-07T02:27:52;96684.28;;;12.45;100.00
41886;BME280;27567;43.084;25.616;2024-01-07T02:30:36;96673.16;;;12.58;100.00
41886;BME280;27567;43.084;25.616;2024-01-07T02:33:20;96669.06;;;12.56;100.00
41886;BME280;27567;43.084;25.616;2024-01-07T02:36:04;96660.72;;;12.52;100.00
41886;BME280;27567;43.084;25.616;2024-01-07T02:38:48;96653.16;;;12.49;100.00
41886;BME280;27567;43.084;25.616;2024-01-07T02:41:32;96648.69;;;12.60;100.00
41886;BME280;27567;43.084;25.616;2024-01-07T02:44:16;96643.25;;;12.50;100.00
41886;BME280;27567;43.084;25.616;2024-01-07T02:47:00;96645.44;;;12.58;100.00
41886;BME280;27567;43.084;25.616;2024-01-07T02:49:44;96635.81;;;12.62;100.00
41886;BME280;27567;43.084;25.616;2024-01-07T02:52:28;96633.38;;;12.60;100.00
41886;BME280;27567;43.084;25.616;2024-01-07T02:55:12;96622.59;;;12.55;100.00
41886;BME280;27567;43.084;25.616;2024-01-07T02:57:56;96628.94;;;12.44;100.00
41886;BME280;27567;43.084;25.616;2024-01-07T03:00:41;96627.72;;;12.29;100.00
41886;BME280;27567;43.084;25.616;2024-01-07T03:03:24;96639.75;;;12.22;100.00
41886;BME280;27567;43.084;25.616;2024-01-07T03:06:09;96641.81;;;12.14;100.00
41886;BME280;27567;43.084;25.616;2024-01-07T03:08:52;96655.00;;;12.16;100.00
41886;BME280;27567;43.084;25.616;2024-01-07T03:11:40;96659.00;;;12.13;100.00
41886;BME280;27567;43.084;25.616;2024-01-07T03:14:27;96664.81;;;12.05;100.00
41886;BME280;27567;43.084;25.616;2024-01-07T03:17:11;96670.44;;;12.03;100.00
41886;BME280;27567;43.084;25.616;2024-01-07T03:19:55;96660.47;;;11.99;100.00
41886;BME280;27567;43.084;25.616;2024-01-07T03:22:39;96655.81;;;11.94;100.00
41886;BME280;27567;43.084;25.616;2024-01-07T03:25:23;96640.66;;;12.05;100.00
41886;BME280;27567;43.084;25.616;2024-01-07T03:28:07;96631.50;;;12.01;100.00
41886;BME280;27567;43.084;25.616;2024-01-07T03:30:52;96578.09;;;11.82;100.00
41886;BME280;27567;43.084;25.616;2024-01-07T03:33:37;96563.16;;;11.64;100.00
41886;BME280;27567;43.084;25.616;2024-01-07T03:36:21;96610.28;;;11.55;100.00
41886;BME280;27567;43.084;25.616;2024-01-07T03:39:05;96606.34;;;11.40;100.00
41886;BME280;27567;43.084;25.616;2024-01-07T03:41:49;96592.53;;;11.32;100.00
41886;BME280;27567;43.084;25.616;2024-01-07T03:44:33;96595.78;;;11.34;100.00
41886;BME280;27567;43.084;25.616;2024-01-07T03:47:17;96577.91;;;11.39;100.00
41886;BME280;27567;43.084;25.616;2024-01-07T03:50:01;96580.63;;;11.45;100.00
41886;BME280;27567;43.084;25.616;2024-01-07T03:52:45;96559.84;;;11.35;100.00
41886;BME280;27567;43.084;25.616;2024-01-07T03:55:29;96571.78;;;11.44;100.00
41886;BME280;27567;43.084;25.616;2024-01-07T03:58:13;96566.09;;;11.40;100.00
41886;BME280;27567;43.084;25.616;2024-01-07T04:00:57;96563.03;;;11.32;100.00
41886;BME280;27567;43.084;25.616;2024-01-07T04:03:40;96548.50;;;11.05;100.00
41886;BME280;27567;43.084;25.616;2024-01-07T04:06:24;96537.66;;;10.95;100.00
41886;BME280;27567;43.084;25.616;2024-01-07T04:09:08;96513.97;;;10.70;100.00
41886;BME280;27567;43.084;25.616;2024-01-07T04:11:52;96496.16;;;10.58;100.00
41886;BME280;27567;43.084;25.616;2024-01-07T04:14:36;96508.16;;;10.56;100.00
41886;BME280;27567;43.084;25.616;2024-01-07T04:17:20;96519.47;;;10.41;100.00
41886;BME280;27567;43.084;25.616;2024-01-07T04:20:05;96517.97;;;10.33;100.00
41886;BME280;27567;43.084;25.616;2024-01-07T04:22:49;96531.56;;;10.43;100.00
41886;BME280;27567;43.084;25.616;2024-01-07T04:25:33;96543.94;;;10.66;100.00
41886;BME280;27567;43.084;25.616;2024-01-07T04:28:17;96532.81;;;10.75;100.00
41886;BME280;27567;43.084;25.616;2024-01-07T04:31:01;96533.50;;;10.87;100.00
41886;BME280;27567;43.084;25.616;2024-01-07T04:33:45;96527.16;;;10.93;100.00
41886;BME280;27567;43.084;25.616;2024-01-07T04:36:29;96527.59;;;10.85;100.00
41886;BME280;27567;43.084;25.616;2024-01-07T04:39:13;96523.44;;;10.94;100.00
41886;BME280;27567;43.084;25.616;2024-01-07T04:41:57;96510.66;;;11.02;100.00
41886;BME280;27567;43.084;25.616;2024-01-07T04:44:41;96512.09;;;11.09;100.00
41886;BME280;27567;43.084;25.616;2024-01-07T04:47:29;96495.63;;;11.01;100.00
41886;BME280;27567;43.084;25.616;2024-01-07T04:50:13;96486.94;;;10.93;100.00
41886;BME280;27567;43.084;25.616;2024-01-07T04:52:58;96482.72;;;10.97;100.00
41886;BME280;27567;43.084;25.616;2024-01-07T04:55:42;96473.25;;;10.90;100.00
41886;BME280;27567;43.084;25.616;2024-01-07T04:58:26;96463.22;;;10.80;100.00
41886;BME280;27567;43.084;25.616;2024-01-07T05:01:10;96450.91;;;10.62;100.00
41886;BME280;27567;43.084;25.616;2024-01-07T05:03:54;96445.50;;;10.79;100.00
41886;BME280;27567;43.084;25.616;2024-01-07T05:06:38;96444.88;;;10.72;100.00
41886;BME280;27567;43.084;25.616;2024-01-07T05:09:22;96429.41;;;10.57;100.00
41886;BME280;27567;43.084;25.616;2024-01-07T05:12:06;96421.19;;;10.63;100.00
41886;BME280;27567;43.084;25.616;2024-01-07T05:14:50;96392.09;;;10.50;100.00
41886;BME280;27567;43.084;25.616;2024-01-07T05:17:34;96383.47;;;10.48;100.00
41886;BME280;27567;43.084;25.616;2024-01-07T05:20:18;96388.28;;;10.46;100.00
41886;BME280;27567;43.084;25.616;2024-01-07T05:23:02;96388.72;;;10.60;100.00
41886;BME280;27567;43.084;25.616;2024-01-07T05:25:46;96380.69;;;10.60;100.00
41886;BME280;27567;43.084;25.616;2024-01-07T05:28:30;96380.47;;;10.66;100.00
41886;BME280;27567;43.084;25.616;2024-01-07T05:31:18;96378.06;;;10.65;100.00
41886;BME280;27567;43.084;25.616;2024-01-07T05:34:02;96404.25;;;10.80;100.00
41886;BME280;27567;43.084;25.616;2024-01-07T05:36:46;96400.53;;;10.86;100.00
41886;BME280;27567;43.084;25.616;2024-01-07T05:39:30;96402.72;;;10.89;100.00
41886;BME280;27567;43.084;25.616;2024-01-07T05:42:14;96397.84;;;11.08;100.00
41886;BME280;27567;43.084;25.616;2024-01-07T05:44:58;96395.56;;;11.22;100.00
41886;BME280;27567;43.084;25.616;2024-01-07T05:47:42;96382.22;;;11.33;100.00
41886;BME280;27567;43.084;25.616;2024-01-07T05:50:26;96364.88;;;11.40;100.00
41886;BME280;27567;43.084;25.616;2024-01-07T05:53:09;96370.81;;;11.42;100.00
41886;BME280;27567;43.084;25.616;2024-01-07T05:55:53;96367.31;;;11.42;100.00
41886;BME280;27567;43.084;25.616;2024-01-07T05:58:37;96385.56;;;11.45;100.00
41886;BME280;27567;43.084;25.616;2024-01-07T06:01:21;96381.38;;;11.60;100.00
41886;BME280;27567;43.084;25.616;2024-01-07T06:04:05;96394.53;;;11.56;100.00
41886;BME280;27567;43.084;25.616;2024-01-07T06:06:49;96381.06;;;11.51;100.00
41886;BME280;27567;43.084;25.616;2024-01-07T06:09:33;96364.16;;;11.50;100.00
41886;BME280;27567;43.084;25.616;2024-01-07T06:12:17;96349.91;;;11.50;100.00
41886;BME280;27567;43.084;25.616;2024-01-07T06:15:01;96344.88;;;11.53;100.00
41886;BME280;27567;43.084;25.616;2024-01-07T06:17:45;96350.69;;;11.45;100.00
41886;BME280;27567;43.084;25.616;2024-01-07T06:20:30;96343.66;;;11.39;100.00
41886;BME280;27567;43.084;25.616;2024-01-07T06:23:14;96350.88;;;11.33;100.00
41886;BME280;27567;43.084;25.616;2024-01-07T06:25:58;96355.94;;;11.30;100.00
41886;BME280;27567;43.084;25.616;2024-01-07T06:28:42;96343.81;;;11.27;100.00
41886;BME280;27567;43.084;25.616;2024-01-07T06:31:26;96366.84;;;11.23;100.00
41886;BME280;27567;43.084;25.616;2024-01-07T06:34:11;96356.03;;;11.12;100.00
41886;BME280;27567;43.084;25.616;2024-01-07T06:36:58;96343.69;;;11.11;100.00
41886;BME280;27567;43.084;25.616;2024-01-07T06:39:42;96330.94;;;10.96;100.00
41886;BME280;27567;43.084;25.616;2024-01-07T06:42:26;96345.69;;;10.94;100.00
41886;BME280;27567;43.084;25.616;2024-01-07T06:45:10;96349.38;;;10.88;100.00
41886;BME280;27567;43.084;25.616;2024-01-07T06:47:55;96360.28;;;10.81;100.00
41886;BME280;27567;43.084;25.616;2024-01-07T06:50:39;96363.47;;;10.78;100.00
41886;BME280;27567;43.084;25.616;2024-01-07T06:53:23;96369.06;;;10.76;100.00
41886;BME280;27567;43.084;25.616;2024-01-07T06:56:07;96371.75;;;10.76;100.00
41886;BME280;27567;43.084;25.616;2024-01-07T06:58:51;96358.34;;;10.76;100.00
41886;BME280;27567;43.084;25.616;2024-01-07T07:01:36;96347.53;;;10.66;100.00
41886;BME280;27567;43.084;25.616;2024-01-07T07:04:21;96352.38;;;10.69;100.00
41886;BME280;27567;43.084;25.616;2024-01-07T07:07:05;96378.78;;;10.60;100.00
41886;BME280;27567;43.084;25.616;2024-01-07T07:09:49;96365.66;;;10.59;100.00
41886;BME280;27567;43.084;25.616;2024-01-07T07:12:33;96355.81;;;10.64;100.00
41886;BME280;27567;43.084;25.616;2024-01-07T07:15:22;96355.25;;;10.62;100.00
41886;BME280;27567;43.084;25.616;2024-01-07T07:18:17;96322.16;;;10.51;100.00
41886;BME280;27567;43.084;25.616;2024-01-07T07:21:01;96343.59;;;10.51;100.00
41886;BME280;27567;43.084;25.616;2024-01-07T07:23:45;96332.84;;;10.46;100.00
41886;BME280;27567;43.084;25.616;2024-01-07T07:26:29;96305.38;;;10.61;100.00
41886;BME280;27567;43.084;25.616;2024-01-07T07:29:13;96295.59;;;10.72;100.00
41886;BME280;27567;43.084;25.616;2024-01-07T07:31:57;96289.34;;;10.89;100.00
41886;BME280;27567;43.084;25.616;2024-01-07T07:34:41;96304.91;;;10.92;100.00
41886;BME280;27567;43.084;25.616;2024-01-07T07:37:25;96295.44;;;10.84;100.00
41886;BME280;27567;43.084;25.616;2024-01-07T07:40:09;96269.34;;;10.74;100.00
41886;BME280;27567;43.084;25.616;2024-01-07T07:42:55;96325.63;;;10.74;100.00
41886;BME280;27567;43.084;25.616;2024-01-07T07:45:39;96307.59;;;10.92;100.00
41886;BME280;27567;43.084;25.616;2024-01-07T07:48:23;96336.25;;;10.91;100.00
41886;BME280;27567;43.084;25.616;2024-01-07T07:51:07;96323.97;;;10.95;100.00
41886;BME280;27567;43.084;25.616;2024-01-07T07:53:51;96329.34;;;10.95;100.00
41886;BME280;27567;43.084;25.616;2024-01-07T07:56:35;96330.94;;;10.96;100.00
41886;BME280;27567;43.084;25.616;2024-01-07T07:59:20;96337.66;;;10.99;100.00
41886;BME280;27567;43.084;25.616;2024-01-07T08:02:04;96325.53;;;10.91;100.00
41886;BME280;27567;43.084;25.616;2024-01-07T08:04:48;96317.59;;;11.02;100.00
41886;BME280;27567;43.084;25.616;2024-01-07T08:07:32;96338.00;;;11.08;100.00
41886;BME280;27567;43.084;25.616;2024-01-07T08:10:16;96348.16;;;11.01;100.00
41886;BME280;27567;43.084;25.616;2024-01-07T08:13:00;96347.78;;;11.19;100.00
41886;BME280;27567;43.084;25.616;2024-01-07T08:15:44;96359.47;;;11.08;100.00
41886;BME280;27567;43.084;25.616;2024-01-07T08:18:27;96330.59;;;11.15;100.00
41886;BME280;27567;43.084;25.616;2024-01-07T08:21:12;96334.81;;;11.11;100.00
41886;BME280;27567;43.084;25.616;2024-01-07T08:23:56;96338.69;;;11.20;100.00
41886;BME280;27567;43.084;25.616;2024-01-07T08:26:40;96352.69;;;11.27;100.00
41886;BME280;27567;43.084;25.616;2024-01-07T08:29:24;96350.75;;;11.18;100.00
41886;BME280;27567;43.084;25.616;2024-01-07T08:32:08;96337.78;;;11.42;100.00
41886;BME280;27567;43.084;25.616;2024-01-07T08:34:55;96357.63;;;11.41;100.00
41886;BME280;27567;43.084;25.616;2024-01-07T08:37:43;96339.91;;;11.40;100.00
41886;BME280;27567;43.084;25.616;2024-01-07T08:40:37;96340.06;;;11.55;100.00
41886;BME280;27567;43.084;25.616;2024-01-07T08:43:21;96346.22;;;11.56;100.00
41886;BME280;27567;43.084;25.616;2024-01-07T08:46:05;96342.94;;;11.49;100.00
41886;BME280;27567;43.084;25.616;2024-01-07T08:48:50;96343.19;;;11.47;100.00
41886;BME280;27567;43.084;25.616;2024-01-07T08:51:34;96370.28;;;11.78;100.00
41886;BME280;27567;43.084;25.616;2024-01-07T08:54:19;96386.19;;;11.90;100.00
41886;BME280;27567;43.084;25.616;2024-01-07T08:57:03;96396.94;;;11.90;100.00
41886;BME280;27567;43.084;25.616;2024-01-07T08:59:48;96404.16;;;11.90;100.00
41886;BME280;27567;43.084;25.616;2024-01-07T09:02:32;96405.50;;;11.87;100.00
41886;BME280;27567;43.084;25.616;2024-01-07T09:05:19;96405.50;;;11.87;100.00
41886;BME280;27567;43.084;25.616;2024-01-07T09:08:03;96411.72;;;11.93;100.00
41886;BME280;27567;43.084;25.616;2024-01-07T09:10:48;96402.84;;;11.92;100.00
41886;BME280;27567;43.084;25.616;2024-01-07T09:13:32;96410.78;;;11.77;100.00
41886;BME280;27567;43.084;25.616;2024-01-07T09:16:16;96406.19;;;11.72;100.00
41886;BME280;27567;43.084;25.616;2024-01-07T09:19:00;96377.97;;;11.64;100.00
41886;BME280;27567;43.084;25.616;2024-01-07T09:21:47;96391.38;;;11.64;100.00
41886;BME280;27567;43.084;25.616;2024-01-07T09:24:31;96376.44;;;11.79;100.00
41886;BME280;27567;43.084;25.616;2024-01-07T09:27:15;96384.53;;;11.84;100.00
41886;BME280;27567;43.084;25.616;2024-01-07T09:29:59;96364.28;;;11.66;100.00
41886;BME280;27567;43.084;25.616;2024-01-07T09:32:44;96391.03;;;11.88;100.00
41886;BME280;27567;43.084;25.616;2024-01-07T09:35:28;96387.34;;;11.99;100.00
41886;BME280;27567;43.084;25.616;2024-01-07T09:38:12;96375.59;;;12.06;100.00
41886;BME280;27567;43.084;25.616;2024-01-07T09:40:56;96381.00;;;12.16;100.00
41886;BME280;27567;43.084;25.616;2024-01-07T09:43:40;96383.81;;;12.42;100.00
41886;BME280;27567;43.084;25.616;2024-01-07T09:46:25;96389.19;;;12.42;100.00
41886;BME280;27567;43.084;25.616;2024-01-07T09:49:09;96388.88;;;12.33;100.00
41886;BME280;27567;43.084;25.616;2024-01-07T09:51:58;96387.31;;;12.37;100.00
41886;BME280;27567;43.084;25.616;2024-01-07T09:54:47;96384.63;;;12.37;100.00
41886;BME280;27567;43.084;25.616;2024-01-07T09:57:34;96390.22;;;12.30;100.00
41886;BME280;27567;43.084;25.616;2024-01-07T10:00:20;96381.59;;;12.23;100.00
41886;BME280;27567;43.084;25.616;2024-01-07T10:03:04;96393.47;;;12.32;100.00
41886;BME280;27567;43.084;25.616;2024-01-07T10:05:48;96390.25;;;12.41;100.00
41886;BME280;27567;43.084;25.616;2024-01-07T10:08:32;96398.56;;;12.34;100.00
41886;BME280;27567;43.084;25.616;2024-01-07T10:11:17;96392.75;;;12.47;100.00
41886;BME280;27567;43.084;25.616;2024-01-07T10:14:01;96404.34;;;12.58;100.00
41886;BME280;27567;43.084;25.616;2024-01-07T10:16:46;96407.88;;;12.69;100.00
41886;BME280;27567;43.084;25.616;2024-01-07T10:19:30;96395.19;;;13.49;100.00
41886;BME280;27567;43.084;25.616;2024-01-07T10:22:14;96387.91;;;13.86;100.00
41886;BME280;27567;43.084;25.616;2024-01-07T10:24:59;96383.28;;;13.14;100.00
41886;BME280;27567;43.084;25.616;2024-01-07T10:27:43;96386.38;;;12.69;100.00
41886;BME280;27567;43.084;25.616;2024-01-07T10:30:29;96396.84;;;12.60;100.00
41886;BME280;27567;43.084;25.616;2024-01-07T10:33:13;96379.78;;;13.23;100.00
41886;BME280;27567;43.084;25.616;2024-01-07T10:36:02;96376.09;;;13.50;100.00
41886;BME280;27567;43.084;25.616;2024-01-07T10:38:50;96363.59;;;12.98;100.00
41886;BME280;27567;43.084;25.616;2024-01-07T10:41:37;96372.69;;;12.76;100.00
41886;BME280;27567;43.084;25.616;2024-01-07T10:44:30;96359.88;;;13.19;100.00
41886;BME280;27567;43.084;25.616;2024-01-07T10:47:16;96353.75;;;13.60;100.00
41886;BME280;27567;43.084;25.616;2024-01-07T10:50:04;96351.84;;;13.71;100.00
41886;BME280;27567;43.084;25.616;2024-01-07T10:52:50;96351.00;;;14.07;100.00
41886;BME280;27567;43.084;25.616;2024-01-07T10:55:42;96336.38;;;14.23;100.00
41886;BME280;27567;43.084;25.616;2024-01-07T10:58:36;96324.66;;;14.69;100.00
41886;BME280;27567;43.084;25.616;2024-01-07T11:01:20;96326.31;;;15.45;100.00
41886;BME280;27567;43.084;25.616;2024-01-07T11:04:20;96349.59;;;15.70;100.00
41886;BME280;27567;43.084;25.616;2024-01-07T11:07:39;96335.00;;;17.17;100.00
41886;BME280;27567;43.084;25.616;2024-01-07T11:10:37;96325.84;;;15.38;100.00
41886;BME280;27567;43.084;25.616;2024-01-07T11:13:36;96315.31;;;18.11;100.00
41886;BME280;27567;43.084;25.616;2024-01-07T11:19:23;96312.28;;;21.91;84.34
41886;BME280;27567;43.084;25.616;2024-01-07T11:22:24;96310.19;;;22.05;83.50
41886;BME280;27567;43.084;25.616;2024-01-07T11:25:28;96320.06;;;21.27;83.31
41886;BME280;27567;43.084;25.616;2024-01-07T11:28:13;96333.38;;;19.59;99.01
41886;BME280;27567;43.084;25.616;2024-01-07T11:30:57;96310.03;;;19.58;100.00
41886;BME280;27567;43.084;25.616;2024-01-07T11:33:43;96309.22;;;19.34;100.00
41886;BME280;27567;43.084;25.616;2024-01-07T11:36:28;96305.75;;;19.65;100.00
41886;BME280;27567;43.084;25.616;2024-01-07T11:39:12;96318.13;;;18.75;100.00
41886;BME280;27567;43.084;25.616;2024-01-07T11:41:57;96323.63;;;16.52;100.00
41886;BME280;27567;43.084;25.616;2024-01-07T11:44:50;96324.19;;;15.42;100.00
41886;BME280;27567;43.084;25.616;2024-01-07T11:47:37;96306.41;;;14.40;100.00
41886;BME280;27567;43.084;25.616;2024-01-07T11:50:25;96305.84;;;14.54;100.00
41886;BME280;27567;43.084;25.616;2024-01-07T11:53:12;96294.66;;;16.34;100.00
41886;BME280;27567;43.084;25.616;2024-01-07T11:55:57;96267.63;;;18.10;100.00
41886;BME280;27567;43.084;25.616;2024-01-07T11:58:42;96281.44;;;19.37;100.00
41886;BME280;27567;43.084;25.616;2024-01-07T12:01:26;96267.44;;;20.74;88.32
41886;BME280;27567;43.084;25.616;2024-01-07T12:04:11;96282.06;;;18.33;100.00
41886;BME280;27567;43.084;25.616;2024-01-07T12:06:56;96271.25;;;16.24;100.00
41886;BME280;27567;43.084;25.616;2024-01-07T12:09:42;96299.28;;;15.50;100.00
41886;BME280;27567;43.084;25.616;2024-01-07T12:12:48;96280.38;;;15.50;100.00
41886;BME280;27567;43.084;25.616;2024-01-07T12:15:32;96280.94;;;14.78;100.00
41886;BME280;27567;43.084;25.616;2024-01-07T12:18:16;96295.06;;;14.99;100.00
41886;BME280;27567;43.084;25.616;2024-01-07T12:21:00;96277.66;;;16.33;100.00
41886;BME280;27567;43.084;25.616;2024-01-07T12:23:50;96282.66;;;16.64;100.00
41886;BME280;27567;43.084;25.616;2024-01-07T12:26:35;96289.09;;;15.42;100.00
41886;BME280;27567;43.084;25.616;2024-01-07T12:29:21;96288.41;;;14.86;100.00
41886;BME280;27567;43.084;25.616;2024-01-07T12:32:05;96295.50;;;14.66;100.00
41886;BME280;27567;43.084;25.616;2024-01-07T12:34:50;96285.47;;;14.17;100.00
41886;BME280;27567;43.084;25.616;2024-01-07T12:37:34;96293.88;;;14.10;100.00
41886;BME280;27567;43.084;25.616;2024-01-07T12:40:20;96294.41;;;14.12;100.00
41886;BME280;27567;43.084;25.616;2024-01-07T12:43:04;96283.38;;;14.03;100.00
41886;BME280;27567;43.084;25.616;2024-01-07T12:45:50;96308.41;;;14.14;100.00
41886;BME280;27567;43.084;25.616;2024-01-07T12:48:35;96297.94;;;13.92;100.00
41886;BME280;27567;43.084;25.616;2024-01-07T12:51:19;96311.94;;;14.04;100.00
41886;BME280;27567;43.084;25.616;2024-01-07T12:54:03;96310.59;;;13.96;100.00
41886;BME280;27567;43.084;25.616;2024-01-07T12:56:47;96313.84;;;13.88;100.00
41886;BME280;27567;43.084;25.616;2024-01-07T12:59:31;96309.78;;;14.01;100.00
41886;BME280;27567;43.084;25.616;2024-01-07T13:02:15;96317.34;;;13.94;100.00
41886;BME280;27567;43.084;25.616;2024-01-07T13:04:59;96307.09;;;13.91;100.00
41886;BME280;27567;43.084;25.616;2024-01-07T13:07:44;96310.88;;;13.95;100.00
41886;BME280;27567;43.084;25.616;2024-01-07T13:10:28;96315.72;;;13.88;100.00
41886;BME280;27567;43.084;25.616;2024-01-07T13:13:12;96319.78;;;13.75;100.00
41886;BME280;27567;43.084;25.616;2024-01-07T13:15:56;96317.91;;;13.70;100.00
41886;BME280;27567;43.084;25.616;2024-01-07T13:18:44;96315.50;;;13.68;100.00
41886;BME280;27567;43.084;25.616;2024-01-07T13:21:38;96324.63;;;13.73;100.00
41886;BME280;27567;43.084;25.616;2024-01-07T13:24:26;96317.09;;;13.80;100.00
41886;BME280;27567;43.084;25.616;2024-01-07T13:27:23;96313.81;;;14.09;100.00
41886;BME280;27567;43.084;25.616;2024-01-07T13:30:33;96305.00;;;13.82;100.00
41886;BME280;27567;43.084;25.616;2024-01-07T13:33:39;96313.28;;;13.96;100.00
41886;BME280;27567;43.084;25.616;2024-01-07T13:36:28;96314.16;;;13.61;100.00
41886;BME280;27567;43.084;25.616;2024-01-07T13:39:16;96311.72;;;13.28;100.00
41886;BME280;27567;43.084;25.616;2024-01-07T13:42:02;96306.88;;;13.30;100.00
41886;BME280;27567;43.084;25.616;2024-01-07T13:44:47;96308.75;;;13.25;100.00
41886;BME280;27567;43.084;25.616;2024-01-07T13:47:35;96320.59;;;13.39;100.00
41886;BME280;27567;43.084;25.616;2024-01-07T13:50:25;96323.00;;;13.30;100.00
41886;BME280;27567;43.084;25.616;2024-01-07T13:53:11;96320.31;;;13.25;100.00
41886;BME280;27567;43.084;25.616;2024-01-07T13:55:59;96316.53;;;13.05;100.00
41886;BME280;27567;43.084;25.616;2024-01-07T13:58:43;96325.13;;;12.92;100.00
41886;BME280;27567;43.084;25.616;2024-01-07T14:01:40;96324.84;;;12.88;100.00
41886;BME280;27567;43.084;25.616;2024-01-07T14:04:27;96325.09;;;12.76;100.00
41886;BME280;27567;43.084;25.616;2024-01-07T14:07:11;96341.22;;;12.76;100.00
41886;BME280;27567;43.084;25.616;2024-01-07T14:09:55;96336.91;;;12.65;100.00
41886;BME280;27567;43.084;25.616;2024-01-07T14:12:40;96346.56;;;12.66;100.00
41886;BME280;27567;43.084;25.616;2024-01-07T14:15:24;96337.66;;;12.50;100.00